Time;durP1;ratioP1;P1;durP2;ratioP2;P2;SDS_P1;SDS_P2;PMS_P1;PMS_P2;Temp;Humidity;BMP_temperature;BMP_pressure;BME280_temperature;BME280_humidity;BME280_pressure;Samples;Min_cycle;Max_cycle;Signal;HPM_P1;HPM_P2
2021/07/26 00:00:07;;;;;;;;;;;;;;;23.41;55.95;95313.44;1045219;28;1345;-74
2021/07/26 00:00:37;;;;;;;;;;;;;;;23.40;56.16;95317.16;1041035;28;1215;-74
2021/07/26 00:01:10;;;;;;;;;;;;;;;23.40;56.01;95312.66;1044686;28;1213;-74
2021/07/26 00:01:41;;;;;;;;;;;;;;;23.40;56.03;95314.50;1040658;28;1436;-74
2021/07/26 00:02:11;;;;;;;;;;;;;;;23.40;56.03;95317.16;1037047;28;1140;-74
2021/07/26 00:02:42;;;;;;;;;;;;;;;23.40;55.98;95315.28;1039366;28;820;-74
2021/07/26 00:03:12;;;;;;;;;;;;;;;23.40;56.20;95317.16;1040649;28;1284;-74
2021/07/26 00:03:42;;;;;;;;;;;;;;;23.39;56.03;95319.00;1044454;28;1614;-74
2021/07/26 00:04:13;;;;;;;;;;;;;;;23.39;55.95;95319.00;1042000;28;2231;-74
2021/07/26 00:04:43;;;;;;;;;;;;;;;23.39;56.16;95318.22;1043556;28;2775;-75
2021/07/26 00:05:13;;;;;;;;;;;;;;;23.39;56.04;95315.56;1049494;28;1123;-75
2021/07/26 00:05:51;;;;;;;;;;;;;;;23.39;55.89;95318.22;1047220;28;1368;-75
2021/07/26 00:06:22;;;;;;;;;;;;;;;23.39;56.19;95316.34;1044921;28;1143;-75
2021/07/26 00:06:52;;;;;;;;;;;;;;;23.39;55.84;95318.22;1041775;28;1195;-75
2021/07/26 00:07:23;;;;;;;;;;;;;;;23.39;55.87;95324.28;1043003;28;1163;-74
2021/07/26 00:07:53;;;;;;;;;;;;;;;23.39;55.95;95319.00;1043944;28;1052;-75
2021/07/26 00:08:23;;;;;;;;;;;;;;;23.39;56.21;95319.00;1044036;28;765;-74
2021/07/26 00:08:54;;;;;;;;;;;;;;;23.39;55.84;95324.28;1045746;28;1222;-74
2021/07/26 00:09:24;;;;;;;;;;;;;;;23.39;56.14;95318.22;1043483;28;2348;-74
2021/07/26 00:09:54;;;;;;;;;;;;;;;23.39;56.09;95315.56;1044692;28;1199;-75
2021/07/26 00:10:25;;;;;;;;;;;;;;;23.39;56.17;95318.22;1045269;28;855;-74
2021/07/26 00:11:08;;;;;;;;;;;;;;;23.39;56.09;95316.34;1042422;28;1188;-75
2021/07/26 00:11:38;;;;;;;;;;;;;;;23.39;55.92;95319.00;1041545;28;1816;-74
2021/07/26 00:12:09;;;;;;;;;;;;;;;23.41;56.05;95329.31;1045145;28;1257;-74
2021/07/26 00:12:39;;;;;;;;;;;;;;;23.40;55.83;95330.38;1044999;28;1099;-75
2021/07/26 00:13:10;;;;;;;;;;;;;;;23.40;55.94;95323.22;1048204;28;1342;-74
2021/07/26 00:13:40;;;;;;;;;;;;;;;23.40;55.85;95325.88;1048801;28;1138;-74
2021/07/26 00:14:10;;;;;;;;;;;;;;;23.40;55.80;95328.50;1048440;28;1163;-74
2021/07/26 00:14:41;;;;;;;;;;;;;;;23.40;56.12;95319.78;1044075;28;2344;-74
2021/07/26 00:15:11;;;;;;;;;;;;;;;23.41;55.96;95326.66;1042868;28;2009;-75
2021/07/26 00:15:42;;;;;;;;;;;;;;;23.40;56.00;95330.38;1036629;28;927;-74
2021/07/26 00:16:12;;;;;;;;;;;;;;;23.41;56.01;95326.66;1040696;28;1247;-74
2021/07/26 00:16:42;;;;;;;;;;;;;;;23.41;55.84;95327.41;1038895;28;2290;-74
2021/07/26 00:17:13;;;;;;;;;;;;;;;23.41;56.01;95329.31;1036736;28;1085;-75
2021/07/26 00:17:43;;;;;;;;;;;;;;;23.42;55.76;95322.91;1032406;28;1906;-75
2021/07/26 00:18:13;;;;;;;;;;;;;;;23.41;55.94;95324.78;1030844;28;1213;-74
2021/07/26 00:18:44;;;;;;;;;;;;;;;23.41;55.84;95322.13;1031837;28;2695;-74
2021/07/26 00:19:14;;;;;;;;;;;;;;;23.42;56.14;95328.22;1040663;28;1018;-74
2021/07/26 00:19:44;;;;;;;;;;;;;;;23.41;56.07;95329.31;1044534;28;1142;-74
2021/07/26 00:20:15;;;;;;;;;;;;;;;23.41;56.03;95321.38;1040574;28;2157;-74
2021/07/26 00:20:46;;;;;;;;;;;;;;;23.40;55.94;95323.22;1041795;28;1139;-74
2021/07/26 00:21:16;;;;;;;;;;;;;;;23.41;55.82;95316.06;1047676;28;1284;-73
2021/07/26 00:21:46;;;;;;;;;;;;;;;23.40;55.91;95322.44;1044758;28;1191;-74
2021/07/26 00:22:17;;;;;;;;;;;;;;;23.41;56.10;95326.66;1044485;28;2018;-74
2021/07/26 00:22:48;;;;;;;;;;;;;;;23.41;55.94;95322.13;1042353;28;1147;-74
2021/07/26 00:23:18;;;;;;;;;;;;;;;23.40;56.21;95325.09;1045209;28;1659;-74
2021/07/26 00:23:49;;;;;;;;;;;;;;;23.39;55.87;95323.50;1041142;28;1184;-74
2021/07/26 00:24:19;;;;;;;;;;;;;;;23.39;56.18;95323.50;1040736;28;1346;-75
2021/07/26 00:24:50;;;;;;;;;;;;;;;23.40;55.90;95323.22;1040537;28;1128;-74
2021/07/26 00:25:21;;;;;;;;;;;;;;;23.39;55.98;95321.66;1035741;28;2619;-74
2021/07/26 00:25:52;;;;;;;;;;;;;;;23.40;55.90;95319.78;1040838;28;1239;-75
2021/07/26 00:26:24;;;;;;;;;;;;;;;23.40;55.98;95322.44;1045029;28;1126;-74
2021/07/26 00:26:55;;;;;;;;;;;;;;;23.40;55.88;95327.72;1036979;28;1450;-75
2021/07/26 00:27:25;;;;;;;;;;;;;;;23.40;55.95;95325.09;1040742;28;903;-74
2021/07/26 00:27:55;;;;;;;;;;;;;;;23.39;56.13;95328.78;1040490;28;1215;-74
2021/07/26 00:28:26;;;;;;;;;;;;;;;23.40;56.07;95327.72;1036175;28;1835;-74
2021/07/26 00:28:56;;;;;;;;;;;;;;;23.39;56.14;95328.78;1046807;28;1167;-74
2021/07/26 00:29:26;;;;;;;;;;;;;;;23.39;55.84;95323.50;1046589;28;1213;-73
2021/07/26 00:29:57;;;;;;;;;;;;;;;23.40;55.79;95325.09;1044150;28;2210;-72
2021/07/26 00:30:27;;;;;;;;;;;;;;;23.39;56.07;95326.16;1041219;28;2069;-74
2021/07/26 00:30:58;;;;;;;;;;;;;;;23.40;56.05;95330.38;1043609;28;1218;-74
2021/07/26 00:31:28;;;;;;;;;;;;;;;23.40;56.07;95327.72;1045619;28;780;-74
2021/07/26 00:31:59;;;;;;;;;;;;;;;23.39;56.00;95321.66;1046997;28;1122;-74
2021/07/26 00:32:29;;;;;;;;;;;;;;;23.39;55.91;95321.66;1048184;28;1147;-74
2021/07/26 00:33:00;;;;;;;;;;;;;;;23.39;55.78;95320.84;1047072;28;1339;-74
2021/07/26 00:34:26;;;;;;;;;;;;;;;23.40;56.16;95327.72;1037894;28;1316;-74
2021/07/26 00:34:57;;;;;;;;;;;;;;;23.39;55.93;95326.16;1036467;28;2885;-72
2021/07/26 00:35:27;;;;;;;;;;;;;;;23.40;56.00;95327.72;1039530;28;2156;-73
2021/07/26 00:35:58;;;;;;;;;;;;;;;23.38;55.91;95328.03;1042674;28;1159;-73
2021/07/26 00:36:29;;;;;;;;;;;;;;;23.38;56.11;95325.38;1045232;28;1209;-74
2021/07/26 00:37:01;;;;;;;;;;;;;;;23.37;55.83;95330.97;1040725;28;1151;-73
2021/07/26 00:37:31;;;;;;;;;;;;;;;23.37;56.04;95331.75;1036526;28;1910;-73
2021/07/26 00:38:02;;;;;;;;;;;;;;;23.37;56.20;95330.97;1034704;28;1370;-74
2021/07/26 00:38:32;;;;;;;;;;;;;;;23.38;56.07;95335.19;1034022;28;1154;-74
2021/07/26 00:39:03;;;;;;;;;;;;;;;23.36;55.91;95335.50;1041242;28;1313;-73
2021/07/26 00:39:34;;;;;;;;;;;;;;;23.36;56.13;95335.50;1036089;28;1870;-74
2021/07/26 00:40:09;;;;;;;;;;;;;;;23.36;55.93;95340.00;1043249;28;2486;-73
2021/07/26 00:40:40;;;;;;;;;;;;;;;23.35;56.28;95333.91;1040646;28;828;-74
2021/07/26 00:41:10;;;;;;;;;;;;;;;23.33;56.01;95333.44;1047908;28;1176;-74
2021/07/26 00:41:40;;;;;;;;;;;;;;;;;;1045275;28;1178;-73
2021/07/26 00:42:11;;;;;;;;;;;;;;;23.35;56.21;95333.13;1045385;28;1155;-73
2021/07/26 00:42:41;;;;;;;;;;;;;;;23.36;55.94;95337.34;1044556;28;1069;-74
2021/07/26 00:43:11;;;;;;;;;;;;;;;23.38;56.07;95340.47;1040288;28;1300;-74
2021/07/26 00:43:42;;;;;;;;;;;;;;;23.37;55.78;95336.25;1044694;28;1171;-74
2021/07/26 00:44:12;;;;;;;;;;;;;;;23.37;56.08;95330.97;1045431;28;1199;-74
2021/07/26 00:44:43;;;;;;;;;;;;;;;23.36;56.12;95330.19;1042419;28;1363;-74
2021/07/26 00:45:13;;;;;;;;;;;;;;;23.36;56.19;95337.34;1046621;28;2469;-73
2021/07/26 00:45:44;;;;;;;;;;;;;;;23.37;56.05;95336.25;1049056;28;836;-74
2021/07/26 00:46:17;;;;;;;;;;;;;;;23.35;55.84;95327.84;1046470;28;1119;-74
2021/07/26 00:46:47;;;;;;;;;;;;;;;23.36;56.13;95329.41;1041532;28;1108;-74
2021/07/26 00:47:17;;;;;;;;;;;;;;;23.36;56.04;95324.13;1045116;28;2125;-74
2021/07/26 00:47:48;;;;;;;;;;;;;;;23.36;55.88;95324.13;1044546;28;1214;-74
2021/07/26 00:48:18;;;;;;;;;;;;;;;23.35;55.83;95323.34;1044552;28;1123;-73
2021/07/26 00:48:48;;;;;;;;;;;;;;;23.35;55.84;95333.91;1044484;28;1179;-74
2021/07/26 00:49:19;;;;;;;;;;;;;;;23.36;55.88;95321.47;1044055;28;1906;-74
2021/07/26 00:49:49;;;;;;;;;;;;;;;23.35;56.12;95318.03;1044657;28;1116;-74
2021/07/26 00:50:20;;;;;;;;;;;;;;;23.35;56.06;95320.69;1043640;28;2482;-73
2021/07/26 00:50:52;;;;;;;;;;;;;;;23.37;56.04;95320.38;1040461;28;1214;-73
2021/07/26 00:51:23;;;;;;;;;;;;;;;23.35;55.90;95318.03;1040406;28;1179;-74
2021/07/26 00:51:54;;;;;;;;;;;;;;;23.36;56.01;95319.63;1041140;28;2793;-73
2021/07/26 00:52:24;;;;;;;;;;;;;;;23.36;55.73;95316.97;1041036;28;1495;-73
2021/07/26 00:52:55;;;;;;;;;;;;;;;23.37;55.71;95320.38;1039365;28;1226;-73
2021/07/26 00:53:25;;;;;;;;;;;;;;;23.37;55.80;95312.44;1035628;28;1233;-73
2021/07/26 00:53:55;;;;;;;;;;;;;;;23.37;55.83;95315.09;1040553;28;1068;-74
2021/07/26 00:54:33;;;;;;;;;;;;;;;23.37;56.19;95317.72;1036794;28;1232;-73
2021/07/26 00:55:04;;;;;;;;;;;;;;;23.37;55.80;95315.09;1032753;28;2455;-73
2021/07/26 00:55:34;;;;;;;;;;;;;;;23.36;55.76;95318.84;1028180;28;2311;-74
2021/07/26 00:56:05;;;;;;;;;;;;;;;23.36;55.88;95313.53;1029765;28;1152;-73
2021/07/26 00:56:36;;;;;;;;;;;;;;;23.36;55.76;95314.34;1028882;28;1294;-73
2021/07/26 00:57:07;;;;;;;;;;;;;;;23.37;55.94;95318.53;1032455;28;1298;-73
2021/07/26 00:57:37;;;;;;;;;;;;;;;23.37;55.77;95309.81;1037168;28;1914;-74
2021/07/26 00:58:08;;;;;;;;;;;;;;;23.38;55.93;95319.31;1038973;28;1764;-73
2021/07/26 00:58:38;;;;;;;;;;;;;;;23.37;55.68;95320.38;1036526;28;1175;-74
2021/07/26 00:59:09;;;;;;;;;;;;;;;23.37;55.84;95321.16;1039524;28;1228;-73
2021/07/26 00:59:40;;;;;;;;;;;;;;;23.39;55.93;95323.50;1037012;28;1054;-73
2021/07/26 01:00:10;;;;;;;;;;;;;;;23.37;55.70;95315.09;1033930;28;1967;-74
2021/07/26 01:00:40;;;;;;;;;;;;;;;23.37;55.77;95323.03;1032591;28;800;-73
2021/07/26 01:01:13;;;;;;;;;;;;;;;23.37;55.78;95318.53;1039695;28;1161;-75
2021/07/26 01:01:43;;;;;;;;;;;;;;;23.37;55.90;95317.72;1044886;28;1002;-73
2021/07/26 01:02:13;;;;;;;;;;;;;;;23.37;55.87;95315.09;1044855;28;1241;-73
2021/07/26 01:02:44;;;;;;;;;;;;;;;23.37;55.63;95317.72;1044801;28;1143;-73
2021/07/26 01:03:14;;;;;;;;;;;;;;;23.37;55.88;95325.66;1039892;28;1283;-73
2021/07/26 01:03:45;;;;;;;;;;;;;;;23.38;55.99;95324.59;1039355;28;2541;-73
2021/07/26 01:04:15;;;;;;;;;;;;;;;23.37;55.93;95317.72;1034488;28;2478;-73
2021/07/26 01:04:46;;;;;;;;;;;;;;;23.37;55.64;95317.72;1039910;28;2162;-74
2021/07/26 01:05:16;;;;;;;;;;;;;;;23.36;55.69;95318.84;1044090;28;2584;-74
2021/07/26 01:05:46;;;;;;;;;;;;;;;23.37;55.63;95320.38;1044605;28;1155;-73
2021/07/26 01:06:17;;;;;;;;;;;;;;;23.37;55.93;95317.72;1044755;28;1377;-73
2021/07/26 01:06:47;;;;;;;;;;;;;;;23.37;55.60;95321.16;1040277;28;1194;-73
2021/07/26 01:07:18;;;;;;;;;;;;;;;23.38;55.85;95321.97;1040730;28;794;-74
2021/07/26 01:07:48;;;;;;;;;;;;;;;23.37;55.91;95315.88;1034446;28;1925;-74
2021/07/26 01:08:19;;;;;;;;;;;;;;;23.39;55.56;95315.56;1035981;28;1155;-74
2021/07/26 01:08:49;;;;;;;;;;;;;;;23.39;55.87;95318.22;1033013;28;1248;-75
2021/07/26 01:09:19;;;;;;;;;;;;;;;23.39;55.53;95318.22;1032400;28;1525;-75
2021/07/26 01:09:51;;;;;;;;;;;;;;;23.39;55.78;95315.56;1035457;28;1108;-75
2021/07/26 01:10:21;;;;;;;;;;;;;;;23.39;55.60;95312.94;1032594;28;2535;-75
2021/07/26 01:10:52;;;;;;;;;;;;;;;23.39;55.84;95313.72;1034035;28;1549;-75
2021/07/26 01:11:23;;;;;;;;;;;;;;;23.39;55.67;95316.34;1036594;28;839;-75
2021/07/26 01:11:53;;;;;;;;;;;;;;;23.39;55.52;95312.94;1033518;28;1436;-75
2021/07/26 01:12:23;;;;;;;;;;;;;;;23.40;55.69;95309.22;1032574;28;853;-75
2021/07/26 01:13:05;;;;;;;;;;;;;;;23.40;55.75;95303.91;1033289;28;1387;-75
2021/07/26 01:13:37;;;;;;;;;;;;;;;23.42;55.78;95299.09;1036655;28;1267;-74
2021/07/26 01:14:08;;;;;;;;;;;;;;;23.40;55.77;95298.63;1035509;28;1134;-74
2021/07/26 01:14:43;;;;;;;;;;;;;;;23.41;55.46;95300.97;1034963;28;1602;-75
2021/07/26 01:15:17;;;;;;;;;;;;;;;23.42;55.62;95312.34;1032187;28;1883;-74
2021/07/26 01:15:47;;;;;;;;;;;;;;;23.42;55.62;95312.34;1029519;28;1929;-75
2021/07/26 01:16:18;;;;;;;;;;;;;;;23.44;55.44;95308.31;1034196;28;904;-75
2021/07/26 01:16:49;;;;;;;;;;;;;;;23.44;55.43;95307.53;1037650;28;1305;-74
2021/07/26 01:17:40;;;;;;;;;;;;;;;23.43;55.64;95303.34;1040455;28;1931;-74
2021/07/26 01:18:26;;;;;;;;;;;;;;;23.42;55.51;95313.13;1035465;28;1458;-74
2021/07/26 01:18:56;;;;;;;;;;;;;;;23.43;55.37;95313.91;1034784;28;1278;-74
2021/07/26 01:19:27;;;;;;;;;;;;;;;23.42;55.45;95301.75;1040229;28;1042;-74
2021/07/26 01:19:57;;;;;;;;;;;;;;;23.41;55.53;95311.53;1042163;28;1146;-75
2021/07/26 01:20:27;;;;;;;;;;;;;;;23.40;55.78;95306.56;1043318;28;2555;-75
2021/07/26 01:20:58;;;;;;;;;;;;;;;23.39;55.50;95313.72;1045135;28;1249;-74
2021/07/26 01:21:29;;;;;;;;;;;;;;;23.39;55.60;95305.78;1040681;28;1236;-75
2021/07/26 01:21:59;;;;;;;;;;;;;;;23.39;55.75;95308.41;1040389;28;1116;-75
2021/07/26 01:22:29;;;;;;;;;;;;;;;23.39;55.57;95312.94;1040444;28;1982;-75
2021/07/26 01:23:00;;;;;;;;;;;;;;;23.40;55.78;95319.78;1038826;28;1237;-74
2021/07/26 01:23:34;;;;;;;;;;;;;;;23.40;55.75;95322.44;1041494;28;1753;-75
2021/07/26 01:24:04;;;;;;;;;;;;;;;23.39;55.67;95323.50;1037310;28;1766;-74
2021/07/26 01:24:34;;;;;;;;;;;;;;;23.40;55.53;95317.94;1030216;28;2584;-75
2021/07/26 01:25:06;;;;;;;;;;;;;;;23.40;55.68;95323.22;1038299;28;1151;-75
2021/07/26 01:25:37;;;;;;;;;;;;;;;23.39;55.59;95321.66;1040014;28;2647;-75
2021/07/26 01:26:08;;;;;;;;;;;;;;;23.39;55.70;95321.66;1048489;28;1187;-75
2021/07/26 01:26:39;;;;;;;;;;;;;;;23.39;55.84;95328.78;1048477;28;1178;-75
2021/07/26 01:27:09;;;;;;;;;;;;;;;23.38;55.62;95327.25;1045650;28;1286;-74
2021/07/26 01:27:39;;;;;;;;;;;;;;;23.38;55.80;95324.59;1040650;28;920;-75
2021/07/26 01:28:11;;;;;;;;;;;;;;;23.39;55.76;95328.78;1040334;28;1167;-75
2021/07/26 01:28:43;;;;;;;;;;;;;;;23.39;55.55;95326.94;1039212;28;1223;-75
2021/07/26 01:29:13;;;;;;;;;;;;;;;23.40;55.55;95330.38;1039917;28;2475;-74
2021/07/26 01:29:44;;;;;;;;;;;;;;;23.40;55.55;95325.09;1040469;28;975;-75
2021/07/26 01:30:14;;;;;;;;;;;;;;;23.40;55.66;95330.38;1044600;28;2404;-74
2021/07/26 01:30:44;;;;;;;;;;;;;;;23.37;55.62;95325.66;1040487;28;1128;-74
2021/07/26 01:31:15;;;;;;;;;;;;;;;23.37;55.64;95325.66;1045401;28;1221;-74
2021/07/26 01:31:45;;;;;;;;;;;;;;;23.36;55.83;95329.41;1044614;28;1248;-74
2021/07/26 01:32:15;;;;;;;;;;;;;;;23.35;55.86;95333.13;1044594;28;1211;-76
2021/07/26 01:32:45;;;;;;;;;;;;;;;23.35;55.83;95331.28;1043412;28;1974;-74
2021/07/26 01:33:16;;;;;;;;;;;;;;;;;;1047554;28;1208;-74
2021/07/26 01:33:46;;;;;;;;;;;;;;;23.35;55.59;95330.47;1045337;28;1195;-74
2021/07/26 01:34:16;;;;;;;;;;;;;;;23.35;55.60;95325.19;1044021;28;2747;-74
2021/07/26 01:34:47;;;;;;;;;;;;;;;23.36;55.77;95334.69;1042977;28;2521;-74
2021/07/26 01:35:17;;;;;;;;;;;;;;;23.36;55.78;95329.41;1044074;28;2470;-74
2021/07/26 01:35:47;;;;;;;;;;;;;;;23.35;55.58;95323.34;1041366;28;1092;-74
2021/07/26 01:36:18;;;;;;;;;;;;;;;23.35;55.60;95322.53;1045595;28;992;-75
2021/07/26 01:36:48;;;;;;;;;;;;;;;23.36;55.85;95329.41;1045032;28;1166;-75
2021/07/26 01:37:19;;;;;;;;;;;;;;;23.36;55.56;95334.69;1044834;28;1095;-74
2021/07/26 01:37:49;;;;;;;;;;;;;;;;;;1044833;28;1980;-74
2021/07/26 01:38:19;;;;;;;;;;;;;;;23.35;55.79;95317.25;1044092;28;1096;-75
2021/07/26 01:38:53;;;;;;;;;;;;;;;23.35;55.84;95319.91;1044627;28;1157;-74
2021/07/26 01:39:24;;;;;;;;;;;;;;;23.35;55.82;95319.91;1045925;28;1226;-75
2021/07/26 01:39:54;;;;;;;;;;;;;;;23.36;55.58;95318.84;1040431;28;1128;-74
2021/07/26 01:40:24;;;;;;;;;;;;;;;23.35;55.81;95323.34;1034714;28;2383;-74
2021/07/26 01:41:00;;;;;;;;;;;;;;;23.36;55.91;95324.91;1034168;28;1243;-74
2021/07/26 01:41:35;;;;;;;;;;;;;;;23.35;55.62;95314.59;1042119;28;848;-75
2021/07/26 01:42:06;;;;;;;;;;;;;;;23.35;55.87;95317.25;1044208;28;1681;-74
2021/07/26 01:42:43;;;;;;;;;;;;;;;23.35;55.75;95309.31;1047066;28;858;-75
2021/07/26 01:43:13;;;;;;;;;;;;;;;23.36;55.58;95316.19;1044196;28;1391;-75
2021/07/26 01:44:02;;;;;;;;;;;;;;;23.37;55.48;95320.38;1036784;28;1463;-74
2021/07/26 01:44:33;;;;;;;;;;;;;;;23.36;55.75;95316.97;1024801;29;844;-75
2021/07/26 01:45:03;;;;;;;;;;;;;;;23.36;55.65;95314.34;1032003;28;1146;-75
2021/07/26 01:45:34;;;;;;;;;;;;;;;23.37;55.55;95315.09;1038069;28;2383;-75
2021/07/26 01:46:10;;;;;;;;;;;;;;;23.36;55.70;95316.19;1043284;28;1188;-76
2021/07/26 01:46:44;;;;;;;;;;;;;;;23.37;55.54;95313.22;1045498;28;978;-74
2021/07/26 01:47:14;;;;;;;;;;;;;;;23.37;55.59;95312.44;1044226;28;1679;-74
2021/07/26 01:47:48;;;;;;;;;;;;;;;23.37;55.61;95309.81;1040682;28;1144;-75
2021/07/26 01:48:30;;;;;;;;;;;;;;;23.37;55.43;95315.09;1044460;28;1049;-75
2021/07/26 01:49:23;;;;;;;;;;;;;;;23.37;55.68;95315.09;1041779;28;1163;-75
2021/07/26 01:50:03;;;;;;;;;;;;;;;23.38;55.62;95317.47;1035962;28;1252;-74
2021/07/26 01:50:35;;;;;;;;;;;;;;;23.38;55.57;95312.16;1037783;28;2333;-74
2021/07/26 01:51:07;;;;;;;;;;;;;;;23.38;55.36;95306.88;1039399;28;1144;-74
2021/07/26 01:51:38;;;;;;;;;;;;;;;23.39;55.64;95319.00;1040502;28;955;-74
2021/07/26 01:52:09;;;;;;;;;;;;;;;23.39;55.59;95320.84;1037166;28;1977;-73
2021/07/26 01:52:39;;;;;;;;;;;;;;;23.39;55.54;95316.34;1044889;28;804;-75
2021/07/26 01:53:09;;;;;;;;;;;;;;;23.38;55.48;95317.47;1039552;28;1272;-74
2021/07/26 01:53:42;;;;;;;;;;;;;;;23.38;55.57;95314.03;1035846;28;1655;-75
2021/07/26 01:54:12;;;;;;;;;;;;;;;23.38;55.33;95316.66;1044842;28;1218;-73
2021/07/26 01:54:43;;;;;;;;;;;;;;;23.38;55.47;95316.66;1041523;28;902;-75
2021/07/26 01:55:13;;;;;;;;;;;;;;;23.38;55.40;95314.03;1041245;28;1253;-74
2021/07/26 01:55:44;;;;;;;;;;;;;;;23.38;55.28;95316.66;1036389;28;2360;-74
2021/07/26 01:56:14;;;;;;;;;;;;;;;23.38;55.53;95317.47;1032281;28;1244;-74
2021/07/26 01:56:44;;;;;;;;;;;;;;;23.38;55.27;95309.53;1028572;28;1121;-74
2021/07/26 01:57:15;;;;;;;;;;;;;;;23.38;55.48;95309.53;1030580;28;1185;-74
2021/07/26 01:57:45;;;;;;;;;;;;;;;23.39;55.28;95305.00;1036161;28;1894;-75
2021/07/26 01:58:16;;;;;;;;;;;;;;;23.40;55.43;95309.22;1036289;28;781;-75
2021/07/26 01:58:46;;;;;;;;;;;;;;;23.39;55.25;95308.41;1033026;28;1280;-74
2021/07/26 01:59:16;;;;;;;;;;;;;;;23.39;55.26;95313.72;1032295;28;796;-74
2021/07/26 01:59:47;;;;;;;;;;;;;;;23.39;55.60;95300.50;1027781;28;1778;-75
2021/07/26 02:00:17;;;;;;;;;;;;;;;23.38;55.43;95314.81;1031720;28;1910;-74
2021/07/26 02:00:47;;;;;;;;;;;;;;;23.39;55.46;95316.34;1035927;28;2770;-74
2021/07/26 02:01:18;;;;;;;;;;;;;;;23.39;55.49;95313.72;1044641;28;775;-75
2021/07/26 02:01:48;;;;;;;;;;;;;;;23.38;55.47;95316.66;1047572;28;1225;-74
2021/07/26 02:02:18;;;;;;;;;;;;;;;23.39;55.31;95319.00;1046755;28;1001;-74
2021/07/26 02:02:49;;;;;;;;;;;;;;;23.38;55.22;95314.81;1045597;28;1241;-74
2021/07/26 02:03:19;;;;;;;;;;;;;;;23.38;55.27;95314.03;1048002;28;1240;-74
2021/07/26 02:03:49;;;;;;;;;;;;;;;23.38;55.62;95316.66;1039283;28;2352;-74
2021/07/26 02:04:20;;;;;;;;;;;;;;;23.38;55.43;95314.03;1037723;28;2296;-74
2021/07/26 02:04:53;;;;;;;;;;;;;;;23.38;55.56;95317.47;1037140;28;1124;-74
2021/07/26 02:05:23;;;;;;;;;;;;;;;23.37;55.59;95315.09;1040346;28;2417;-74
2021/07/26 02:05:53;;;;;;;;;;;;;;;23.38;55.46;95312.16;1039883;28;2236;-75
2021/07/26 02:06:24;;;;;;;;;;;;;;;23.38;55.21;95316.66;1040590;28;741;-74
2021/07/26 02:06:54;;;;;;;;;;;;;;;23.38;55.33;95309.53;1040820;28;1186;-74
2021/07/26 02:07:25;;;;;;;;;;;;;;;23.37;55.41;95309.81;1045062;28;1109;-74
2021/07/26 02:07:55;;;;;;;;;;;;;;;23.38;55.28;95308.72;1044226;28;1636;-74
2021/07/26 02:08:26;;;;;;;;;;;;;;;23.39;55.25;95312.94;1042090;28;985;-74
2021/07/26 02:08:56;;;;;;;;;;;;;;;23.38;55.26;95308.72;1046593;28;1233;-74
2021/07/26 02:09:26;;;;;;;;;;;;;;;23.37;55.30;95302.66;1048831;28;878;-74
2021/07/26 02:09:57;;;;;;;;;;;;;;;23.38;55.60;95306.09;1047368;28;1237;-74
2021/07/26 02:10:27;;;;;;;;;;;;;;;23.38;55.30;95306.09;1043883;28;2362;-75
2021/07/26 02:10:57;;;;;;;;;;;;;;;23.36;55.59;95295.81;1040278;28;1064;-73
2021/07/26 02:11:28;;;;;;;;;;;;;;;23.38;55.56;95295.50;1036961;28;1843;-74
2021/07/26 02:11:58;;;;;;;;;;;;;;;23.37;55.57;95300.00;1038034;28;1330;-75
2021/07/26 02:12:28;;;;;;;;;;;;;;;23.37;55.37;95301.88;1036946;28;1068;-75
2021/07/26 02:12:59;;;;;;;;;;;;;;;23.37;55.37;95293.94;1042707;28;1312;-73
2021/07/26 02:13:29;;;;;;;;;;;;;;;23.36;55.43;95303.75;1040665;28;1205;-75
2021/07/26 02:13:59;;;;;;;;;;;;;;;23.36;55.51;95297.66;1044889;28;1231;-74
2021/07/26 02:14:29;;;;;;;;;;;;;;;23.35;55.55;95290.81;1048841;28;946;-74
2021/07/26 02:15:00;;;;;;;;;;;;;;;23.35;55.57;95290.81;1046670;28;1158;-75
2021/07/26 02:15:31;;;;;;;;;;;;;;;23.35;55.39;95304.03;1036649;28;2517;-75
2021/07/26 02:16:01;;;;;;;;;;;;;;;;;;1034771;28;1467;-75
2021/07/26 02:16:32;;;;;;;;;;;;;;;23.35;55.55;95299.53;1035038;28;1172;-75
2021/07/26 02:17:02;;;;;;;;;;;;;;;23.35;55.62;95296.09;1033625;28;1113;-75
2021/07/26 02:17:33;;;;;;;;;;;;;;;23.35;55.23;95293.44;1040719;28;1972;-75
2021/07/26 02:18:03;;;;;;;;;;;;;;;23.35;55.20;95293.44;1044401;28;1186;-74
2021/07/26 02:18:33;;;;;;;;;;;;;;;23.35;55.42;95301.38;1041165;28;738;-75
2021/07/26 02:19:04;;;;;;;;;;;;;;;23.33;55.63;95298.25;1034257;28;1357;-75
2021/07/26 02:19:35;;;;;;;;;;;;;;;;;;1039770;28;1131;-74
2021/07/26 02:20:05;;;;;;;;;;;;;;;23.35;55.29;95293.44;1035396;28;1821;-75
2021/07/26 02:20:35;;;;;;;;;;;;;;;23.34;55.54;95289.25;1036208;28;2346;-74
2021/07/26 02:21:06;;;;;;;;;;;;;;;23.33;55.28;95292.97;1043325;28;1133;-75
2021/07/26 02:21:36;;;;;;;;;;;;;;;23.32;55.27;95289.56;1045310;28;810;-74
2021/07/26 02:22:06;;;;;;;;;;;;;;;23.32;55.44;95286.13;1040286;28;1207;-74
2021/07/26 02:22:37;;;;;;;;;;;;;;;23.32;55.37;95286.94;1040834;28;1618;-74
2021/07/26 02:23:07;;;;;;;;;;;;;;;23.32;55.32;95288.78;1044082;28;1655;-73
2021/07/26 02:23:38;;;;;;;;;;;;;;;23.32;55.38;95299.34;1045417;28;883;-75
2021/07/26 02:24:08;;;;;;;;;;;;;;;23.32;55.41;95296.72;1045109;28;1277;-74
2021/07/26 02:24:39;;;;;;;;;;;;;;;23.32;55.53;95294.84;1040916;28;1396;-75
2021/07/26 02:25:09;;;;;;;;;;;;;;;23.31;55.47;95289.81;1037077;28;1160;-74
2021/07/26 02:25:43;;;;;;;;;;;;;;;23.32;55.25;95288.78;1036352;28;2369;-74
2021/07/26 02:26:14;;;;;;;;;;;;;;;23.32;55.47;95292.22;1033675;28;1261;-74
2021/07/26 02:26:45;;;;;;;;;;;;;;;23.34;55.46;95294.56;1037610;28;1108;-73
2021/07/26 02:27:15;;;;;;;;;;;;;;;23.33;55.25;95285.03;1045024;28;1239;-74
2021/07/26 02:27:45;;;;;;;;;;;;;;;23.32;55.58;95291.44;1044235;28;1788;-74
2021/07/26 02:28:16;;;;;;;;;;;;;;;23.32;55.30;95288.78;1045626;28;1009;-74
2021/07/26 02:28:46;;;;;;;;;;;;;;;23.31;55.45;95285.31;1043536;28;1202;-73
2021/07/26 02:29:17;;;;;;;;;;;;;;;23.31;55.32;95287.19;1040948;28;1381;-74
2021/07/26 02:29:47;;;;;;;;;;;;;;;23.31;55.41;95284.53;1036956;28;1358;-74
2021/07/26 02:30:18;;;;;;;;;;;;;;;23.31;55.39;95285.31;1037950;28;1152;-74
2021/07/26 02:30:48;;;;;;;;;;;;;;;23.31;55.19;95284.53;1040425;28;2282;-74
2021/07/26 02:31:18;;;;;;;;;;;;;;;23.30;55.36;95290.91;1045542;28;855;-74
2021/07/26 02:31:49;;;;;;;;;;;;;;;23.30;55.19;95290.91;1045968;28;1092;-73
2021/07/26 02:32:19;;;;;;;;;;;;;;;23.29;55.11;95284.06;1045584;28;1146;-75
2021/07/26 02:32:49;;;;;;;;;;;;;;;23.28;55.19;95290.44;1045115;28;1299;-74
2021/07/26 02:33:20;;;;;;;;;;;;;;;23.27;55.20;95288.84;1040020;28;2706;-74
2021/07/26 02:33:50;;;;;;;;;;;;;;;23.26;55.44;95288.09;1039484;28;2293;-75
2021/07/26 02:34:21;;;;;;;;;;;;;;;23.25;55.52;95291.81;1041242;28;788;-74
2021/07/26 02:34:51;;;;;;;;;;;;;;;23.26;55.45;95290.75;1044814;28;1100;-74
2021/07/26 02:35:22;;;;;;;;;;;;;;;23.26;55.28;95293.38;1044197;28;2335;-74
2021/07/26 02:35:52;;;;;;;;;;;;;;;23.26;55.42;95289.97;1041389;28;2471;-73
2021/07/26 02:36:23;;;;;;;;;;;;;;;23.24;55.37;95292.13;1045724;28;1029;-74
2021/07/26 02:36:53;;;;;;;;;;;;;;;23.24;55.22;95294.75;1042052;28;2355;-73
2021/07/26 02:37:24;;;;;;;;;;;;;;;23.24;55.29;95292.13;1040310;28;2146;-74
2021/07/26 02:37:55;;;;;;;;;;;;;;;23.24;55.47;95294.75;1049188;28;1472;-74
2021/07/26 02:38:25;;;;;;;;;;;;;;;23.23;55.30;95299.25;1048840;28;765;-74
2021/07/26 02:38:56;;;;;;;;;;;;;;;23.23;55.35;95296.63;1048497;28;1116;-74
2021/07/26 02:39:26;;;;;;;;;;;;;;;23.23;55.26;95298.47;1047811;28;1226;-74
2021/07/26 02:39:57;;;;;;;;;;;;;;;23.23;55.15;95299.25;1047641;28;1178;-74
2021/07/26 02:40:28;;;;;;;;;;;;;;;23.23;55.43;95298.47;1045228;28;1151;-74
2021/07/26 02:40:59;;;;;;;;;;;;;;;23.23;55.53;95303.78;1043202;28;2666;-74
2021/07/26 02:41:29;;;;;;;;;;;;;;;23.23;55.17;95304.56;1045577;28;1327;-74
2021/07/26 02:42:00;;;;;;;;;;;;;;;23.23;55.26;95303.78;1045122;28;1167;-75
2021/07/26 02:42:30;;;;;;;;;;;;;;;23.23;55.47;95301.13;1045088;28;1154;-75
2021/07/26 02:43:00;;;;;;;;;;;;;;;23.24;55.43;95300.06;1042575;28;1443;-74
2021/07/26 02:43:31;;;;;;;;;;;;;;;23.24;55.22;95310.63;1040929;28;844;-75
2021/07/26 02:44:01;;;;;;;;;;;;;;;23.25;55.38;95314.81;1044095;28;1136;-74
2021/07/26 02:44:32;;;;;;;;;;;;;;;23.23;55.40;95304.56;1045128;28;1143;-74
2021/07/26 02:45:02;;;;;;;;;;;;;;;23.24;55.15;95305.34;1043474;28;1491;-74
2021/07/26 02:45:34;;;;;;;;;;;;;;;23.23;55.09;95309.06;1040646;28;2316;-74